Time;durP1;ratioP1;P1;durP2;ratioP2;P2;SDS_P1;SDS_P2;PMS_P1;PMS_P2;Temp;Humidity;BMP_temperature;BMP_pressure;BME280_temperature;BME280_humidity;BME280_pressure;Samples;Min_cycle;Max_cycle;Signal;HPM_P1;HPM_P2
2021/06/21 00:00:08;;;;;;;3.92;3.58;;;;;;;21.44;73.48;100046.38;4948935;28;20079;-83
2021/06/21 00:02:34;;;;;;;4.07;2.78;;;;;;;21.39;73.13;100037.81;4966901;28;20054;-84
2021/06/21 00:05:01;;;;;;;3.45;2.60;;;;;;;21.38;74.05;100033.44;4985740;28;20042;-83
2021/06/21 00:07:28;;;;;;;3.30;2.92;;;;;;;21.35;73.84;100026.50;4965841;28;20058;-83
2021/06/21 00:09:56;;;;;;;4.10;2.55;;;;;;;21.33;73.93;100028.44;4977500;28;20046;-83
2021/06/21 00:12:23;;;;;;;2.88;2.50;;;;;;;21.32;73.98;100029.38;4936232;28;20077;-84
2021/06/21 00:14:50;;;;;;;3.60;3.00;;;;;;;21.27;74.29;100029.66;4971426;28;20054;-85
2021/06/21 00:17:18;;;;;;;3.60;3.05;;;;;;;21.24;74.24;100027.19;4980549;28;20050;-83
2021/06/21 00:19:45;;;;;;;6.82;2.95;;;;;;;21.28;73.90;100022.53;4980763;28;20430;-85
2021/06/21 00:22:14;;;;;;;2.78;2.58;;;;;;;21.25;74.15;100014.72;4965755;28;20165;-85
2021/06/21 00:24:43;;;;;;;3.45;2.55;;;;;;;21.18;74.37;100018.75;4981317;28;20054;-85
2021/06/21 00:27:11;;;;;;;2.25;2.05;;;;;;;21.15;75.16;100017.97;4968177;28;20089;-84
2021/06/21 00:29:38;;;;;;;2.85;2.17;;;;;;;21.09;75.16;100018.38;4967692;28;20054;-84
2021/06/21 00:32:06;;;;;;;4.25;3.10;;;;;;;21.08;75.34;100014.00;4950669;28;20046;-84
2021/06/21 00:34:33;;;;;;;3.40;3.08;;;;;;;21.09;75.92;100004.22;4967730;28;20097;-83
2021/06/21 00:37:01;;;;;;;2.97;2.33;;;;;;;21.07;76.82;99998.16;4986873;28;20057;-82
2021/06/21 00:39:28;;;;;;;6.90;2.45;;;;;;;20.99;78.00;99994.16;4974034;28;20042;-83
2021/06/21 00:41:55;;;;;;;4.20;3.10;;;;;;;20.86;78.50;99985.25;4955596;28;20141;-84
2021/06/21 00:44:21;;;;;;;4.32;3.00;;;;;;;20.79;79.74;99989.22;4986981;28;20042;-83
2021/06/21 00:46:49;;;;;;;2.55;2.35;;;;;;;20.67;80.38;99981.00;4972459;28;20044;-82
2021/06/21 00:49:16;;;;;;;4.88;3.13;;;;;;;20.58;81.43;99986.06;4957639;28;20050;-83
2021/06/21 00:51:45;;;;;;;3.67;3.00;;;;;;;20.45;82.70;99980.63;4954936;28;20050;-85
2021/06/21 00:54:11;;;;;;;3.58;3.20;;;;;;;20.33;83.68;99988.41;4971508;28;20106;-82
2021/06/21 00:56:38;;;;;;;3.90;3.55;;;;;;;20.24;84.01;99983.66;4968763;28;20493;-82
2021/06/21 00:59:06;;;;;;;3.65;3.08;;;;;;;20.12;86.26;99987.06;4961565;28;20056;-83
2021/06/21 01:01:33;;;;;;;4.85;3.13;;;;;;;20.02;86.01;99989.38;4971682;28;20069;-83
2021/06/21 01:04:01;;;;;;;4.05;2.67;;;;;;;19.94;86.54;99981.88;4972546;28;20046;-82
2021/06/21 01:06:29;;;;;;;3.30;2.95;;;;;;;19.92;87.06;99998.84;4957910;28;21587;-83
2021/06/21 01:08:56;;;;;;;5.72;3.42;;;;;;;19.86;87.53;99999.22;4977998;28;20122;-83
2021/06/21 01:11:35;;;;;;;3.08;2.55;;;;;;;19.77;88.59;100014.69;4972064;28;20053;-85
2021/06/21 01:14:16;;;;;;;7.75;3.42;;;;;;;19.62;89.96;100023.53;4977135;28;20046;-83
2021/06/21 01:17:09;;;;;;;6.32;3.72;;;;;;;19.40;91.15;100022.09;4958548;28;20043;-85
2021/06/21 01:20:35;;;;;;;4.55;4.05;;;;;;;19.19;92.88;100026.81;4973632;28;20762;-84
2021/06/21 01:23:56;;;;;;;5.05;3.70;;;;;;;19.03;94.08;100021.47;4960169;28;20054;-84
2021/06/21 01:26:44;;;;;;;5.70;4.05;;;;;;;18.90;95.85;100023.06;4985388;28;20062;-85
2021/06/21 01:29:37;;;;;;;5.32;4.18;;;;;;;18.80;96.17;100025.34;4977101;28;20492;-84
2021/06/21 01:32:18;;;;;;;7.88;4.65;;;;;;;18.73;96.42;100024.78;4970475;28;20054;-83
2021/06/21 01:34:52;;;;;;;6.20;4.50;;;;;;;18.67;98.16;100019.84;4990871;28;20485;-82
2021/06/21 01:37:23;;;;;;;5.78;4.60;;;;;;;18.60;98.69;100016.63;4973349;28;20057;-84
2021/06/21 01:39:57;;;;;;;6.68;4.68;;;;;;;18.52;99.94;100008.22;4959797;28;20249;-83
2021/06/21 01:42:26;;;;;;;6.75;5.30;;;;;;;18.49;100.00;100006.59;4968046;28;20645;-83
2021/06/21 01:45:04;;;;;;;5.22;4.15;;;;;;;18.43;100.00;99992.81;4960693;28;20038;-83
2021/06/21 01:47:34;;;;;;;6.05;4.75;;;;;;;18.40;100.00;99979.75;4952839;28;20047;-85
2021/06/21 01:50:04;;;;;;;8.90;5.50;;;;;;;18.37;100.00;99978.09;4971475;28;20137;-84
2021/06/21 01:52:36;;;;;;;10.15;6.53;;;;;;;18.31;100.00;99973.13;4965812;28;20263;-84
2021/06/21 01:55:06;;;;;;;11.73;5.63;;;;;;;18.34;100.00;99968.53;4979609;28;20046;-84
2021/06/21 01:57:36;;;;;;;6.43;5.25;;;;;;;18.38;100.00;99966.53;4987371;28;20052;-84
2021/06/21 02:00:12;;;;;;;11.75;6.57;;;;;;;18.45;100.00;99962.66;4964677;28;20042;-85
2021/06/21 02:02:44;;;;;;;6.30;5.70;;;;;;;18.46;100.00;99953.75;4964891;28;20050;-82
2021/06/21 02:05:16;;;;;;;7.70;6.95;;;;;;;18.48;100.00;99951.03;4960656;28;20042;-85
2021/06/21 02:07:47;;;;;;;7.53;6.72;;;;;;;18.49;100.00;99953.59;4963594;28;20647;-83
2021/06/21 02:10:15;;;;;;;8.68;6.85;;;;;;;18.49;100.00;99931.53;4989075;28;20100;-85
2021/06/21 02:12:44;;;;;;;9.05;7.22;;;;;;;18.47;100.00;99913.09;4993157;28;20042;-85
2021/06/21 02:15:11;;;;;;;13.02;7.57;;;;;;;18.41;100.00;99915.19;4973150;28;20109;-85
2021/06/21 02:17:42;;;;;;;10.20;7.35;;;;;;;18.40;100.00;99927.59;4989367;28;20138;-85
2021/06/21 02:20:12;;;;;;;7.03;6.43;;;;;;;18.39;100.00;99933.81;4964121;28;20489;-84
2021/06/21 02:22:42;;;;;;;8.85;7.18;;;;;;;18.43;100.00;99930.06;4966745;28;20042;-84
2021/06/21 02:25:11;;;;;;;13.50;7.78;;;;;;;18.47;100.00;99930.75;4974361;28;20051;-84
2021/06/21 02:27:41;;;;;;;8.85;7.68;;;;;;;18.50;100.00;99923.50;4979255;28;20458;-85
2021/06/21 02:30:14;;;;;;;8.25;7.38;;;;;;;18.52;100.00;99923.41;4986764;28;20056;-83
2021/06/21 02:32:47;;;;;;;9.63;7.20;;;;;;;18.51;100.00;99917.28;4991312;28;20077;-82
2021/06/21 02:35:16;;;;;;;12.45;8.10;;;;;;;18.54;100.00;99915.38;4994374;28;20120;-84
2021/06/21 02:37:48;;;;;;;8.95;6.97;;;;;;;18.56;100.00;99918.81;4974999;28;20045;-85
2021/06/21 02:40:17;;;;;;;7.50;6.72;;;;;;;18.55;100.00;99928.56;4983315;28;20498;-83
2021/06/21 02:42:47;;;;;;;7.47;6.78;;;;;;;18.53;100.00;99930.44;4976876;28;20096;-85
2021/06/21 02:45:17;;;;;;;8.82;7.53;;;;;;;18.54;100.00;99933.94;4960538;28;20076;-85
2021/06/21 02:47:46;;;;;;;7.72;6.45;;;;;;;18.51;100.00;99942.91;4961009;28;20129;-84
2021/06/21 02:50:14;;;;;;;8.20;6.78;;;;;;;18.50;100.00;99931.44;4959067;28;20404;-84
2021/06/21 02:53:20;;;;;;;7.82;7.05;;;;;;;18.48;100.00;99933.31;4973226;28;20042;-86
2021/06/21 02:56:08;;;;;;;8.75;6.53;;;;;;;18.50;100.00;99941.22;4969555;28;20108;-86
2021/06/21 02:58:49;;;;;;;8.57;7.65;;;;;;;18.46;100.00;99935.22;4976318;28;20047;-86
2021/06/21 03:01:20;;;;;;;8.10;6.82;;;;;;;18.46;100.00;99934.34;4980800;28;20109;-84
2021/06/21 03:03:55;;;;;;;8.50;6.45;;;;;;;18.44;100.00;99930.94;4962315;28;20054;-84
2021/06/21 03:06:26;;;;;;;7.32;6.63;;;;;;;18.44;100.00;99929.13;4974193;28;20109;-84
2021/06/21 03:08:56;;;;;;;6.97;5.57;;;;;;;18.42;100.00;99927.50;4973506;28;20409;-84
2021/06/21 03:11:26;;;;;;;8.05;6.93;;;;;;;18.41;100.00;99926.66;4972366;28;20058;-83
2021/06/21 03:13:55;;;;;;;8.65;7.40;;;;;;;18.43;100.00;99927.41;4972304;28;20508;-84
2021/06/21 03:16:26;;;;;;;8.18;7.38;;;;;;;18.44;100.00;99920.34;4971081;28;20053;-84
2021/06/21 03:18:54;;;;;;;7.57;6.57;;;;;;;18.41;100.00;99923.13;4975301;28;20050;-83
2021/06/21 03:21:27;;;;;;;8.93;7.07;;;;;;;18.40;100.00;99922.28;4957075;28;20088;-84
2021/06/21 03:23:59;;;;;;;6.80;6.20;;;;;;;18.38;100.00;99920.66;4963053;28;20077;-84
2021/06/21 03:26:34;;;;;;;7.07;6.47;;;;;;;18.42;100.00;99916.91;4984094;28;20084;-86
2021/06/21 03:29:18;;;;;;;6.45;5.95;;;;;;;18.38;100.00;99910.91;4959302;28;20491;-81
2021/06/21 03:31:52;;;;;;;6.93;6.22;;;;;;;18.31;100.00;99910.38;4957488;28;20136;-84
2021/06/21 03:34:22;;;;;;;7.13;6.53;;;;;;;18.27;100.00;99910.63;4982155;28;20104;-84
2021/06/21 03:36:50;;;;;;;6.88;6.28;;;;;;;18.30;100.00;99907.81;4976337;28;20067;-86
2021/06/21 03:39:17;;;;;;;7.00;6.15;;;;;;;18.33;100.00;99908.50;4925485;29;20055;-83
2021/06/21 03:41:45;;;;;;;6.70;6.00;;;;;;;18.32;100.00;99905.94;4976771;28;20050;-83
2021/06/21 03:44:12;;;;;;;5.82;5.32;;;;;;;18.27;100.00;99900.03;4949614;28;20471;-84
2021/06/21 03:46:38;;;;;;;7.15;6.53;;;;;;;18.21;100.00;99893.25;4948140;28;20521;-85
2021/06/21 03:49:08;;;;;;;6.10;5.57;;;;;;;18.18;100.00;99896.06;4933124;29;20055;-83
2021/06/21 03:51:36;;;;;;;6.78;6.18;;;;;;;18.12;100.00;99899.91;4973858;28;20121;-82
2021/06/21 03:54:08;;;;;;;5.85;5.38;;;;;;;18.10;100.00;99895.63;4933036;28;20119;-85
2021/06/21 03:56:35;;;;;;;6.32;5.82;;;;;;;18.07;100.00;99899.28;4962229;28;20554;-84
2021/06/21 03:59:02;;;;;;;6.57;5.88;;;;;;;18.05;100.00;99893.22;4932368;29;20051;-83
2021/06/21 04:01:30;;;;;;;6.70;5.95;;;;;;;18.04;100.00;99888.00;4980003;28;20046;-85
2021/06/21 04:03:59;;;;;;;6.40;5.78;;;;;;;18.07;100.00;99888.69;4934748;28;20047;-84
2021/06/21 04:06:28;;;;;;;6.28;5.78;;;;;;;18.09;100.00;99885.97;4947420;28;20035;-84
2021/06/21 04:08:56;;;;;;;6.20;5.63;;;;;;;18.12;100.00;99883.16;4949485;28;20402;-85
2021/06/21 04:11:26;;;;;;;7.38;6.78;;;;;;;18.17;100.00;99879.34;4961656;28;20565;-83
2021/06/21 04:14:02;;;;;;;8.65;7.45;;;;;;;18.27;100.00;99876.19;4976282;28;20051;-83
2021/06/21 04:16:30;;;;;;;6.53;6.00;;;;;;;18.29;100.00;99876.94;4945279;28;20126;-86
2021/06/21 04:18:57;;;;;;;7.22;6.53;;;;;;;18.29;100.00;99875.19;4929995;28;20493;-87
2021/06/21 04:21:25;;;;;;;5.85;5.32;;;;;;;18.29;100.00;99867.22;4932204;29;20051;-83
2021/06/21 04:23:53;;;;;;;6.68;6.18;;;;;;;18.32;100.00;99867.03;4944380;28;20127;-84
2021/06/21 04:26:23;;;;;;;5.22;4.78;;;;;;;18.32;100.00;99867.03;4930791;28;20576;-84
2021/06/21 04:28:52;;;;;;;5.20;4.80;;;;;;;18.35;100.00;99873.97;4946123;28;20079;-83
2021/06/21 04:31:20;;;;;;;5.20;4.75;;;;;;;18.33;100.00;99875.88;4916289;28;20035;-85
2021/06/21 04:33:48;;;;;;;5.68;5.18;;;;;;;18.31;100.00;99870.63;4954033;28;20047;-84
2021/06/21 04:36:15;;;;;;;4.15;3.85;;;;;;;18.37;100.00;99871.25;4943921;28;20043;-83
2021/06/21 04:38:46;;;;;;;5.35;4.85;;;;;;;18.42;100.00;99871.84;4949552;28;20039;-82
2021/06/21 04:41:16;;;;;;;4.78;4.40;;;;;;;18.47;100.00;99864.50;4950915;28;20126;-86
2021/06/21 04:43:44;;;;;;;5.40;4.90;;;;;;;18.49;100.00;99860.84;4955276;28;20106;-83
2021/06/21 04:46:11;;;;;;;5.20;4.80;;;;;;;18.49;100.00;99858.19;4952091;28;20094;-84
2021/06/21 04:48:38;;;;;;;4.93;3.70;;;;;;;18.47;100.00;99860.09;4961927;28;20855;-85
2021/06/21 04:51:05;;;;;;;4.63;4.22;;;;;;;18.46;100.00;99854.84;4950663;28;20157;-84
2021/06/21 04:53:32;;;;;;;4.15;3.88;;;;;;;18.44;100.00;99862.03;4952860;28;20118;-85
2021/06/21 04:56:00;;;;;;;3.20;3.00;;;;;;;18.41;100.00;99859.53;4964288;28;20117;-83
2021/06/21 04:58:34;;;;;;;2.60;2.50;;;;;;;18.39;100.00;99849.03;4932392;28;20055;-85
2021/06/21 05:01:07;;;;;;;2.97;2.78;;;;;;;18.39;100.00;99853.47;4951260;28;20132;-85
2021/06/21 05:03:36;;;;;;;2.55;2.45;;;;;;;18.37;100.00;99848.28;4965262;28;20055;-84
2021/06/21 05:06:07;;;;;;;2.53;2.42;;;;;;;18.41;100.00;99851.59;4964343;28;20494;-85
2021/06/21 05:08:34;;;;;;;2.67;2.38;;;;;;;18.43;100.00;99849.72;4952446;28;20139;-84
2021/06/21 05:11:02;;;;;;;2.17;2.08;;;;;;;18.45;100.00;99853.16;4944921;28;20081;-84
2021/06/21 05:13:29;;;;;;;2.03;1.92;;;;;;;18.46;100.00;99845.09;4964255;28;20087;-86
2021/06/21 05:16:10;;;;;;;2.90;2.72;;;;;;;18.43;100.00;99834.66;4959782;28;20043;-82
2021/06/21 05:18:38;;;;;;;2.58;2.38;;;;;;;18.41;100.00;99848.94;4942441;28;20043;-86
2021/06/21 05:21:06;;;;;;;2.63;2.42;;;;;;;18.40;100.00;99849.91;4956253;28;20062;-83
2021/06/21 05:23:33;;;;;;;2.30;2.20;;;;;;;18.42;100.00;99835.63;4954194;28;20110;-84
2021/06/21 05:25:59;;;;;;;2.70;2.60;;;;;;;18.43;100.00;99837.31;4952202;28;20442;-83
2021/06/21 05:28:28;;;;;;;2.25;2.13;;;;;;;18.42;100.00;99846.22;4944794;28;20603;-85
2021/06/21 05:30:56;;;;;;;2.35;2.25;;;;;;;18.45;100.00;99840.75;4948561;28;20259;-83
2021/06/21 05:33:26;;;;;;;2.60;2.47;;;;;;;18.46;100.00;99841.59;4949440;28;20058;-84
2021/06/21 05:35:52;;;;;;;2.15;2.05;;;;;;;18.49;100.00;99836.97;4950876;28;20057;-83
2021/06/21 05:38:19;;;;;;;2.42;2.35;;;;;;;18.50;100.00;99843.16;4974650;28;20138;-82
2021/06/21 05:40:47;;;;;;;2.92;2.75;;;;;;;18.45;100.00;99846.03;4958993;28;20047;-80
2021/06/21 05:43:14;;;;;;;2.50;2.13;;;;;;;18.44;100.00;99856.72;4970206;28;20046;-83
2021/06/21 05:45:42;;;;;;;2.47;2.38;;;;;;;18.41;100.00;99852.47;4974667;28;20058;-83
2021/06/21 05:48:11;;;;;;;2.58;2.38;;;;;;;18.40;100.00;99858.69;4969120;28;20117;-83
2021/06/21 05:50:41;;;;;;;6.20;5.60;;;;;;;18.43;100.00;99852.38;4965973;28;20065;-83
2021/06/21 05:53:08;;;;;;;2.63;2.42;;;;;;;18.45;100.00;99854.00;4951321;28;20145;-84
2021/06/21 05:55:38;;;;;;;2.45;2.35;;;;;;;18.44;100.00;99857.56;4976080;28;20082;-82
2021/06/21 05:58:05;;;;;;;3.15;3.05;;;;;;;18.44;100.00;99854.09;4977367;28;20489;-83
2021/06/21 06:00:32;;;;;;;3.80;3.60;;;;;;;18.46;100.00;99855.72;4939527;28;20058;-84
2021/06/21 06:03:01;;;;;;;6.25;5.03;;;;;;;18.48;100.00;99848.50;4975027;28;20061;-82
2021/06/21 06:05:30;;;;;;;2.90;2.78;;;;;;;18.52;100.00;99852.72;4958360;28;20055;-84
2021/06/21 06:08:02;;;;;;;3.75;3.55;;;;;;;18.51;100.00;99850.13;4972552;28;20492;-84
2021/06/21 06:13:18;;;;;;;3.97;3.67;;;;;;;18.38;100.00;99855.25;4965326;28;20507;-83
2021/06/21 06:15:45;;;;;;;3.50;3.30;;;;;;;18.36;100.00;99851.84;4961709;28;20045;-81
2021/06/21 06:18:12;;;;;;;4.78;4.00;;;;;;;18.41;100.00;99854.22;4974464;28;20162;-84
2021/06/21 06:20:40;;;;;;;3.92;3.53;;;;;;;18.47;100.00;99856.56;4951852;28;20065;-83
2021/06/21 06:23:06;;;;;;;3.75;3.45;;;;;;;18.50;100.00;99851.09;4980335;28;20046;-83
2021/06/21 06:28:28;;;;;;;3.30;3.05;;;;;;;18.51;100.00;99848.38;4976874;28;20046;-83
2021/06/21 06:31:06;;;;;;;2.90;2.78;;;;;;;18.50;100.00;99845.81;4957570;28;20050;-84
2021/06/21 06:33:34;;;;;;;2.70;2.60;;;;;;;18.52;100.00;99850.09;4975108;28;20050;-83
2021/06/21 06:36:01;;;;;;;3.40;3.08;;;;;;;18.57;100.00;99847.16;4971793;28;20043;-82
2021/06/21 06:38:29;;;;;;;4.15;3.88;;;;;;;18.59;100.00;99847.06;4971569;28;20046;-85
2021/06/21 06:41:04;;;;;;;2.45;2.33;;;;;;;18.53;100.00;99842.97;4971165;28;20042;-84
2021/06/21 06:43:35;;;;;;;2.63;2.53;;;;;;;18.51;100.00;99851.00;4956797;28;20501;-83
2021/06/21 06:46:02;;;;;;;3.13;3.03;;;;;;;18.54;100.00;99855.28;4938698;28;20099;-84
2021/06/21 06:48:30;;;;;;;2.80;2.70;;;;;;;18.53;100.00;99848.28;4950931;28;20046;-84
2021/06/21 06:50:57;;;;;;;5.00;4.50;;;;;;;18.53;100.00;99840.31;4967168;28;20046;-83
2021/06/21 06:53:35;;;;;;;3.58;3.42;;;;;;;18.61;100.00;99846.03;4957710;28;20477;-82
2021/06/21 06:58:46;;;;;;;4.57;3.90;;;;;;;18.81;100.00;99833.47;4956940;28;20038;-83
2021/06/21 07:01:15;;;;;;;3.60;3.40;;;;;;;18.88;100.00;99831.31;4985946;28;20054;-84
2021/06/21 07:03:42;;;;;;;3.33;3.13;;;;;;;18.89;100.00;99838.34;4954000;28;20042;-84
2021/06/21 07:06:13;;;;;;;3.33;2.60;;;;;;;18.94;100.00;99841.63;4953471;28;20105;-81
2021/06/21 07:08:42;;;;;;;2.85;2.75;;;;;;;18.93;100.00;99843.44;4986764;28;20430;-84
2021/06/21 07:11:09;;;;;;;2.50;2.38;;;;;;;18.93;100.00;99851.38;4960817;28;20057;-83
2021/06/21 07:13:37;;;;;;;2.97;2.78;;;;;;;18.89;98.93;99841.91;4976587;28;20053;-84
2021/06/21 07:16:04;;;;;;;3.40;3.00;;;;;;;18.81;99.43;99846.72;4956441;28;20137;-85
2021/06/21 07:18:33;;;;;;;2.97;2.78;;;;;;;18.79;99.78;99848.63;4974875;28;20568;-82
2021/06/21 07:21:02;;;;;;;2.75;2.65;;;;;;;18.76;99.33;99846.13;4937849;28;20061;-85
2021/06/21 07:32:17;;;;;;;2.78;2.60;;;;;;;18.73;99.73;99841.00;4954731;28;20049;-82
2021/06/21 07:34:46;;;;;;;2.95;2.85;;;;;;;18.73;99.32;99836.56;4974317;28;20186;-85
2021/06/21 07:37:12;;;;;;;2.40;2.30;;;;;;;18.73;99.23;99844.50;4988956;28;20113;-85
2021/06/21 07:39:49;;;;;;;2.88;2.67;;;;;;;18.70;99.29;99842.03;4972631;28;20054;-81
2021/06/21 07:50:49;;;;;;;3.83;3.33;;;;;;;18.33;100.00;99844.06;4971290;28;20564;-84
2021/06/21 07:53:17;;;;;;;4.13;3.53;;;;;;;18.15;100.00;99856.50;4975103;28;20051;-83
2021/06/21 07:55:47;;;;;;;3.58;3.35;;;;;;;18.08;100.00;99861.28;4975424;28;20042;-84
2021/06/21 07:58:19;;;;;;;3.70;3.45;;;;;;;18.02;100.00;99858.97;4973596;28;20081;-84
2021/06/21 08:00:46;;;;;;;4.22;3.88;;;;;;;18.01;100.00;99860.72;4976305;28;20149;-82
2021/06/21 08:03:13;;;;;;;4.63;4.30;;;;;;;18.06;100.00;99864.94;4983811;28;20046;-83
2021/06/21 08:05:43;;;;;;;4.18;3.72;;;;;;;18.17;100.00;99860.78;4986718;28;20507;-84
2021/06/21 08:08:10;;;;;;;4.25;3.92;;;;;;;18.31;100.00;99859.19;4976455;28;20047;-85
2021/06/21 08:10:40;;;;;;;4.25;3.95;;;;;;;18.38;100.00;99865.00;4973296;28;20050;-83
2021/06/21 08:13:08;;;;;;;3.47;3.17;;;;;;;18.39;100.00;99864.06;4990965;28;20042;-83
2021/06/21 08:15:34;;;;;;;3.25;3.05;;;;;;;18.41;100.00;99865.69;4966219;28;20054;-85
2021/06/21 08:18:03;;;;;;;3.75;3.47;;;;;;;18.48;100.00;99858.28;4956913;28;20134;-84
2021/06/21 08:23:46;;;;;;;3.72;3.40;;;;;;;18.62;100.00;99862.81;4977336;28;20046;-82
2021/06/21 08:26:14;;;;;;;4.05;3.75;;;;;;;18.66;100.00;99867.00;4964399;28;20061;-85
2021/06/21 08:28:46;;;;;;;4.32;4.03;;;;;;;18.70;100.00;99865.06;4969878;28;20048;-84
2021/06/21 08:31:13;;;;;;;3.78;3.58;;;;;;;18.77;100.00;99867.28;4974316;28;20042;-85
2021/06/21 08:33:42;;;;;;;4.45;3.85;;;;;;;18.90;100.00;99861.31;4964328;28;20405;-84
2021/06/21 08:36:14;;;;;;;4.00;3.65;;;;;;;19.02;100.00;99871.25;4977425;28;20093;-84
2021/06/21 08:38:43;;;;;;;5.10;4.78;;;;;;;19.08;99.55;99872.69;4979508;28;20413;-84
2021/06/21 08:41:11;;;;;;;4.50;4.10;;;;;;;19.10;99.35;99874.31;4977762;28;20081;-84
2021/06/21 08:43:44;;;;;;;4.80;4.40;;;;;;;19.17;99.69;99875.63;4966367;28;20038;-84
2021/06/21 08:46:21;;;;;;;5.85;5.22;;;;;;;19.29;99.11;99875.88;4973831;28;20042;-84
2021/06/21 08:48:49;;;;;;;8.82;4.72;;;;;;;19.55;98.48;99865.56;4970728;28;20073;-84
2021/06/21 08:51:18;;;;;;;6.15;5.65;;;;;;;20.14;96.33;99870.88;4988311;28;20105;-84
2021/06/21 08:53:45;;;;;;;5.90;5.43;;;;;;;21.06;92.54;99860.72;4972954;28;20046;-84
2021/06/21 08:56:12;;;;;;;5.10;4.70;;;;;;;21.92;89.08;99865.63;4963549;28;20456;-84
2021/06/21 08:58:40;;;;;;;4.90;4.60;;;;;;;22.18;87.85;99854.13;4973046;28;20054;-83
2021/06/21 09:01:11;;;;;;;4.72;4.43;;;;;;;22.20;87.84;99868.16;4970190;28;20073;-82
2021/06/21 09:03:50;;;;;;;4.97;4.63;;;;;;;22.08;87.03;99873.38;4961161;28;20053;-85
2021/06/21 09:06:22;;;;;;;5.85;5.18;;;;;;;21.86;87.67;99868.69;4958210;28;20125;-84
2021/06/21 09:08:58;;;;;;;4.68;4.35;;;;;;;21.80;88.30;99872.66;4956004;28;20050;-83
2021/06/21 09:11:48;;;;;;;4.75;4.35;;;;;;;21.74;88.95;99877.53;4974152;28;20612;-84
2021/06/21 09:14:33;;;;;;;5.53;4.93;;;;;;;21.78;88.07;99869.25;4988288;28;20042;-85
2021/06/21 09:17:10;;;;;;;4.68;4.32;;;;;;;22.13;88.06;99871.25;4956398;28;20034;-84
2021/06/21 09:20:02;;;;;;;5.13;4.72;;;;;;;23.14;84.89;99869.50;4971159;28;20373;-84
2021/06/21 09:22:38;;;;;;;4.97;4.68;;;;;;;24.51;79.65;99858.13;4986648;28;20046;-82
2021/06/21 09:25:22;;;;;;;6.28;4.78;;;;;;;25.30;74.88;99859.75;4972386;28;20057;-82
2021/06/21 09:28:05;;;;;;;4.60;4.30;;;;;;;25.87;72.99;99857.66;4978769;28;20065;-84
2021/06/21 09:30:50;;;;;;;5.18;4.63;;;;;;;26.21;71.72;99864.66;4974737;28;20043;-84
2021/06/21 09:33:31;;;;;;;3.97;3.67;;;;;;;25.93;71.57;99862.50;4948516;28;20104;-85
2021/06/21 09:35:58;;;;;;;4.35;3.22;;;;;;;25.54;73.89;99853.34;4954640;28;20575;-85
2021/06/21 09:38:25;;;;;;;4.28;3.97;;;;;;;25.23;74.25;99862.09;4957183;28;20042;-85
2021/06/21 09:40:57;;;;;;;5.50;5.10;;;;;;;25.74;72.01;99859.69;4973054;28;20044;-85
2021/06/21 09:43:33;;;;;;;5.90;5.40;;;;;;;27.20;65.35;99859.41;4991802;28;20042;-82
2021/06/21 09:46:18;;;;;;;5.82;4.03;;;;;;;28.95;59.88;99850.13;4972263;28;20047;-83
2021/06/21 09:48:57;;;;;;;4.43;3.92;;;;;;;30.71;54.97;99852.88;4938937;28;20043;-85
2021/06/21 09:51:39;;;;;;;4.32;4.03;;;;;;;31.94;48.82;99858.41;4954789;28;20051;-84
2021/06/21 09:54:10;;;;;;;;;;;;;;;32.52;44.75;99852.81;4967879;28;20047;-84
2021/06/21 09:56:47;;;;;;;4.88;4.05;;;;;;;33.29;47.17;99859.31;4972797;28;19929;-84
2021/06/21 09:59:35;;;;;;;3.28;3.17;;;;;;;34.06;43.62;99865.59;4969979;28;20560;-84
2021/06/21 10:02:24;;;;;;;4.32;3.92;;;;;;;34.79;40.53;99854.84;4984782;28;20126;-83
2021/06/21 10:04:51;;;;;;;4.20;3.90;;;;;;;35.57;41.43;99865.06;4974155;28;20038;-85
2021/06/21 10:07:35;;;;;;;5.60;5.20;;;;;;;35.76;38.30;99868.97;4967604;28;20828;-84
2021/06/21 10:10:11;;;;;;;5.07;4.75;;;;;;;34.35;40.65;99867.47;4971822;28;20124;-83
2021/06/21 10:12:41;;;;;;;3.70;3.45;;;;;;;33.35;44.11;99877.59;4976168;28;20047;-83
2021/06/21 10:15:11;;;;;;;4.07;3.88;;;;;;;32.41;45.48;99880.25;4955784;28;20062;-85
2021/06/21 10:17:38;;;;;;;4.45;4.15;;;;;;;31.98;46.36;99881.38;4971674;28;20045;-84
2021/06/21 10:20:09;;;;;;;4.43;4.13;;;;;;;31.16;47.75;99879.53;4970831;28;20521;-84
2021/06/21 10:22:39;;;;;;;4.05;3.80;;;;;;;30.32;49.41;99881.22;4958198;28;20058;-84
2021/06/21 10:25:08;;;;;;;5.68;5.18;;;;;;;29.70;50.91;99874.91;4970052;28;20054;-85
2021/06/21 10:27:50;;;;;;;5.50;5.05;;;;;;;28.94;52.21;99884.28;4953972;28;20147;-83
2021/06/21 10:30:33;;;;;;;5.88;5.45;;;;;;;28.03;54.73;99893.03;4965309;28;20675;-83
2021/06/21 10:33:02;;;;;;;5.70;5.23;;;;;;;27.14;57.49;99881.44;4962962;28;20047;-83
2021/06/21 10:35:33;;;;;;;;;;;;;;;26.33;60.22;99886.88;4968750;28;20077;-83
2021/06/21 10:38:04;;;;;;;6.20;5.70;;;;;;;25.81;62.76;99893.03;4952434;28;20388;-84
2021/06/21 10:40:32;;;;;;;6.10;5.65;;;;;;;25.29;64.35;99897.38;4949307;28;20047;-86
2021/06/21 10:42:59;;;;;;;8.02;7.28;;;;;;;24.70;67.34;99896.81;4955673;28;20086;-84
2021/06/21 10:45:29;;;;;;;7.60;7.00;;;;;;;24.04;71.34;99911.72;4955867;28;20057;-82
2021/06/21 10:48:15;;;;;;;6.95;6.25;;;;;;;23.46;74.73;99909.78;4969514;28;20067;-86
2021/06/21 10:50:54;;;;;;;8.88;8.07;;;;;;;23.11;77.01;99907.03;4967372;28;20050;-85
2021/06/21 10:53:22;;;;;;;8.48;7.63;;;;;;;22.74;78.21;99910.56;4958515;28;20077;-84
2021/06/21 10:55:54;;;;;;;10.98;9.65;;;;;;;22.55;80.36;99912.84;4975289;28;20509;-83
2021/06/21 10:58:22;;;;;;;11.40;10.25;;;;;;;22.59;80.38;99914.34;4965845;28;20192;-85
2021/06/21 11:00:53;;;;;;;11.80;9.98;;;;;;;22.90;79.92;99918.31;4971874;28;20054;-86
2021/06/21 11:03:29;;;;;;;12.32;10.43;;;;;;;24.27;76.29;99909.94;4954841;28;20043;-85
2021/06/21 11:06:08;;;;;;;13.55;11.90;;;;;;;27.10;66.45;99901.50;4971546;28;20055;-85
2021/06/21 11:08:37;;;;;;;12.75;11.55;;;;;;;30.00;56.67;99907.03;4957472;28;20046;-84
2021/06/21 11:11:34;;;;;;;13.38;12.07;;;;;;;32.69;46.77;99902.34;4974959;28;20053;-81
2021/06/21 11:14:14;;;;;;;13.60;12.20;;;;;;;34.46;42.67;99901.50;4973048;28;20061;-84
2021/06/21 11:16:44;;;;;;;12.60;11.15;;;;;;;35.14;41.63;99898.56;4976584;28;20051;-86
2021/06/21 11:19:20;;;;;;;12.98;10.75;;;;;;;35.39;40.89;99892.75;4944206;28;20055;-85
2021/06/21 11:22:06;;;;;;;9.48;8.48;;;;;;;35.70;39.36;99891.56;4971739;28;20077;-88
2021/06/21 11:24:43;;;;;;;10.70;9.60;;;;;;;36.71;37.49;99893.03;4971646;28;20050;-85
2021/06/21 11:27:16;;;;;;;10.60;8.95;;;;;;;37.46;36.61;99898.50;4970381;28;20051;-85
2021/06/21 11:30:01;;;;;;;10.95;9.85;;;;;;;37.98;35.31;99901.44;4988692;28;20064;-87
2021/06/21 11:32:53;;;;;;;11.57;9.45;;;;;;;37.28;35.87;99893.63;4964671;28;20070;-87
2021/06/21 11:35:54;;;;;;;9.55;8.07;;;;;;;35.83;36.82;99890.78;4975502;28;20160;-85
2021/06/21 11:38:28;;;;;;;8.13;7.40;;;;;;;33.79;41.93;99912.19;4961676;28;20034;-85
2021/06/21 11:41:23;;;;;;;9.40;7.97;;;;;;;31.88;45.49;99904.25;4954897;28;20050;-84
2021/06/21 11:46:53;;;;;;;7.60;7.00;;;;;;;28.88;53.09;99899.22;4954364;28;20038;-84
2021/06/21 11:49:23;;;;;;;8.35;7.68;;;;;;;27.80;55.73;99904.09;4990169;28;20053;-85
2021/06/21 11:54:45;;;;;;;8.38;7.35;;;;;;;26.15;60.82;99922.38;4976664;28;20042;-85
2021/06/21 11:57:14;;;;;;;9.20;8.43;;;;;;;25.58;63.01;99924.47;4969981;28;20043;-86
2021/06/21 11:59:48;;;;;;;7.97;7.32;;;;;;;25.13;65.24;99916.56;4970298;28;20057;-85
2021/06/21 12:02:19;;;;;;;9.18;8.45;;;;;;;24.73;66.93;99921.50;4969286;28;20062;-85
2021/06/21 12:04:49;;;;;;;7.30;6.65;;;;;;;24.45;67.96;99922.81;4937926;28;20050;-85
2021/06/21 12:07:37;;;;;;;7.60;7.00;;;;;;;24.17;69.66;99937.47;4967576;28;20050;-84
2021/06/21 12:10:09;;;;;;;8.68;7.70;;;;;;;23.96;70.19;99930.16;4969444;28;20134;-86
2021/06/21 12:12:38;;;;;;;5.82;5.32;;;;;;;23.74;70.80;99933.56;4971389;28;20063;-86
2021/06/21 12:15:10;;;;;;;7.18;6.57;;;;;;;23.62;71.53;99943.38;4953326;28;20077;-85
2021/06/21 12:17:38;;;;;;;8.20;6.60;;;;;;;23.56;71.56;99938.50;4972729;28;20073;-85
2021/06/21 12:20:14;;;;;;;6.28;5.75;;;;;;;23.58;71.80;99955.25;4957327;28;20133;-85
2021/06/21 12:22:53;;;;;;;5.43;4.97;;;;;;;23.68;71.47;99950.94;4972489;28;20127;-85